sensor_id;sensor_type;location;lat;lon;timestamp;pressure;altitude;pressure_sealevel;temperature;humidity
75317;BME280;63913;51.492;10.368;2023-02-28T00:00:49;99723.13;;;-1.00;66.29
75317;BME280;63913;51.492;10.368;2023-02-28T00:03:14;99723.03;;;-0.92;66.69
75317;BME280;63913;51.492;10.368;2023-02-28T00:05:40;99721.13;;;-0.94;66.69
75317;BME280;63913;51.492;10.368;2023-02-28T00:08:07;99733.13;;;-0.92;66.70
75317;BME280;63913;51.492;10.368;2023-02-28T00:10:33;99730.09;;;-0.88;66.18
75317;BME280;63913;51.492;10.368;2023-02-28T00:13:04;99736.03;;;-0.87;66.78
75317;BME280;63913;51.492;10.368;2023-02-28T00:15:30;99725.69;;;-0.90;66.97
75317;BME280;63913;51.492;10.368;2023-02-28T00:17:56;99722.06;;;-0.84;67.39
75317;BME280;63913;51.492;10.368;2023-02-28T00:20:21;99728.22;;;-0.90;67.89
75317;BME280;63913;51.492;10.368;2023-02-28T00:22:49;99731.13;;;-0.86;67.58
75317;BME280;63913;51.492;10.368;2023-02-28T00:25:17;99728.97;;;-0.91;67.40
75317;BME280;63913;51.492;10.368;2023-02-28T00:27:43;99728.31;;;-0.89;67.15
75317;BME280;63913;51.492;10.368;2023-02-28T00:30:17;99725.69;;;-0.90;66.66
75317;BME280;63913;51.492;10.368;2023-02-28T00:32:44;99730.00;;;-0.89;66.99
75317;BME280;63913;51.492;10.368;2023-02-28T00:35:10;99730.38;;;-0.85;66.88
75317;BME280;63913;51.492;10.368;2023-02-28T00:37:35;99731.41;;;-0.83;67.56
75317;BME280;63913;51.492;10.368;2023-02-28T00:40:02;99735.69;;;-0.82;67.60
75317;BME280;63913;51.492;10.368;2023-02-28T00:42:30;99728.47;;;-0.87;67.32
75317;BME280;63913;51.492;10.368;2023-02-28T00:44:56;99730.66;;;-0.82;67.74
75317;BME280;63913;51.492;10.368;2023-02-28T00:47:21;99730.75;;;-0.80;67.34
75317;BME280;63913;51.492;10.368;2023-02-28T00:49:47;99728.47;;;-0.87;66.90
75317;BME280;63913;51.492;10.368;2023-02-28T00:52:12;99728.59;;;-0.86;67.43
75317;BME280;63913;51.492;10.368;2023-02-28T00:54:38;99735.69;;;-0.82;67.11
75317;BME280;63913;51.492;10.368;2023-02-28T00:57:03;99733.19;;;-0.82;67.12
75317;BME280;63913;51.492;10.368;2023-02-28T00:59:30;99731.25;;;-0.84;68.03
75317;BME280;63913;51.492;10.368;2023-02-28T01:01:56;99732.00;;;-0.85;68.68
75317;BME280;63913;51.492;10.368;2023-02-28T01:04:21;99731.66;;;-0.80;67.98
75317;BME280;63913;51.492;10.368;2023-02-28T01:06:47;99721.44;;;-0.81;67.91
75317;BME280;63913;51.492;10.368;2023-02-28T01:09:12;99723.69;;;-0.84;68.08
75317;BME280;63913;51.492;10.368;2023-02-28T01:11:37;99727.25;;;-0.82;68.73
75317;BME280;63913;51.492;10.368;2023-02-28T01:14:03;99723.69;;;-0.84;68.20
75317;BME280;63913;51.492;10.368;2023-02-28T01:16:29;99711.81;;;-0.85;68.29
75317;BME280;63913;51.492;10.368;2023-02-28T01:18:55;99722.06;;;-0.84;68.17
75317;BME280;63913;51.492;10.368;2023-02-28T01:21:21;99717.00;;;-0.84;67.82
75317;BME280;63913;51.492;10.368;2023-02-28T01:23:47;99726.22;;;-0.84;67.88
75317;BME280;63913;51.492;10.368;2023-02-28T01:26:16;99723.19;;;-0.80;68.03
75317;BME280;63913;51.492;10.368;2023-02-28T01:28:42;99723.31;;;-0.79;67.79
75317;BME280;63913;51.492;10.368;2023-02-28T01:31:09;99722.66;;;-0.86;68.68
75317;BME280;63913;51.492;10.368;2023-02-28T01:33:37;99726.22;;;-0.84;68.42
75317;BME280;63913;51.492;10.368;2023-02-28T01:36:22;99719.38;;;-0.85;68.23
75317;BME280;63913;51.492;10.368;2023-02-28T01:38:49;99722.53;;;-0.88;68.60
75317;BME280;63913;51.492;10.368;2023-02-28T01:46:13;99715.94;;;-0.96;68.80
75317;BME280;63913;51.492;10.368;2023-02-28T01:48:53;99715.03;;;-0.96;68.89
75317;BME280;63913;51.492;10.368;2023-02-28T01:51:44;99708.25;;;-0.97;68.75
75317;BME280;63913;51.492;10.368;2023-02-28T01:56:55;99701.81;;;-0.94;68.57
75317;BME280;63913;51.492;10.368;2023-02-28T01:59:26;99705.97;;;-0.94;69.17
75317;BME280;63913;51.492;10.368;2023-02-28T02:01:53;99719.00;;;-0.90;69.05
75317;BME280;63913;51.492;10.368;2023-02-28T02:04:20;99706.13;;;-0.93;68.82
75317;BME280;63913;51.492;10.368;2023-02-28T02:06:47;99707.88;;;-0.92;69.51
75317;BME280;63913;51.492;10.368;2023-02-28T02:09:13;99704.06;;;-0.97;69.54
75317;BME280;63913;51.492;10.368;2023-02-28T02:11:41;99694.25;;;-0.94;69.40
75317;BME280;63913;51.492;10.368;2023-02-28T02:16:51;99709.53;;;-0.92;68.80
75317;BME280;63913;51.492;10.368;2023-02-28T02:19:43;99701.06;;;-0.93;69.72
75317;BME280;63913;51.492;10.368;2023-02-28T02:25:16;99692.97;;;-0.89;69.31
75317;BME280;63913;51.492;10.368;2023-02-28T02:31:46;99697.50;;;-0.95;69.13
75317;BME280;63913;51.492;10.368;2023-02-28T02:36:38;99693.72;;;-1.00;69.99
75317;BME280;63913;51.492;10.368;2023-02-28T02:39:16;99693.31;;;-1.04;69.88
75317;BME280;63913;51.492;10.368;2023-02-28T02:41:51;99695.09;;;-1.03;70.01
75317;BME280;63913;51.492;10.368;2023-02-28T02:44:36;99690.69;;;-1.06;69.57
75317;BME280;63913;51.492;10.368;2023-02-28T02:47:10;99690.31;;;-1.00;68.95
75317;BME280;63913;51.492;10.368;2023-02-28T02:49:40;99698.03;;;-0.99;69.08
75317;BME280;63913;51.492;10.368;2023-02-28T02:52:10;99691.81;;;-1.02;69.02
75317;BME280;63913;51.492;10.368;2023-02-28T02:54:40;99691.94;;;-1.01;68.78
75317;BME280;63913;51.492;10.368;2023-02-28T02:57:14;99697.38;;;-1.06;69.62
75317;BME280;63913;51.492;10.368;2023-02-28T02:59:43;99697.28;;;-0.98;68.95
75317;BME280;63913;51.492;10.368;2023-02-28T03:02:11;99697.13;;;-0.99;70.05
75317;BME280;63913;51.492;10.368;2023-02-28T03:04:43;99693.22;;;-0.96;69.95
75317;BME280;63913;51.492;10.368;2023-02-28T03:07:09;99696.50;;;-0.97;69.61
75317;BME280;63913;51.492;10.368;2023-02-28T03:09:34;99697.28;;;-0.98;69.63
75317;BME280;63913;51.492;10.368;2023-02-28T03:12:01;99697.13;;;-0.99;70.15
75317;BME280;63913;51.492;10.368;2023-02-28T03:14:40;99692.84;;;-1.00;69.21
75317;BME280;63913;51.492;10.368;2023-02-28T03:20:19;99704.72;;;-0.99;69.84
75317;BME280;63913;51.492;10.368;2023-02-28T03:23:03;99693.97;;;-0.97;69.69
75317;BME280;63913;51.492;10.368;2023-02-28T03:25:52;99697.66;;;-0.93;69.81
75317;BME280;63913;51.492;10.368;2023-02-28T03:28:41;99696.91;;;-0.92;69.62
75317;BME280;63913;51.492;10.368;2023-02-28T03:31:25;99697.88;;;-1.00;69.98
75317;BME280;63913;51.492;10.368;2023-02-28T03:33:59;99701.81;;;-0.94;69.30
75317;BME280;63913;51.492;10.368;2023-02-28T03:36:29;99697.00;;;-1.01;69.44
75317;BME280;63913;51.492;10.368;2023-02-28T03:38:59;99695.75;;;-0.96;69.44
75317;BME280;63913;51.492;10.368;2023-02-28T03:41:35;99698.81;;;-0.90;69.36
75317;BME280;63913;51.492;10.368;2023-02-28T03:44:09;99704.34;;;-0.94;69.28
75317;BME280;63913;51.492;10.368;2023-02-28T03:46:44;99699.91;;;-0.96;69.29
75317;BME280;63913;51.492;10.368;2023-02-28T03:49:25;99704.34;;;-0.94;69.32
75317;BME280;63913;51.492;10.368;2023-02-28T03:51:54;99699.28;;;-0.94;69.16
75317;BME280;63913;51.492;10.368;2023-02-28T03:54:29;99703.22;;;-0.97;69.28
75317;BME280;63913;51.492;10.368;2023-02-28T03:57:17;99698.25;;;-0.96;69.83
75317;BME280;63913;51.492;10.368;2023-02-28T03:59:50;99702.19;;;-0.99;69.78
75317;BME280;63913;51.492;10.368;2023-02-28T04:02:19;99697.13;;;-0.99;69.76
75317;BME280;63913;51.492;10.368;2023-02-28T04:04:44;99700.41;;;-1.00;70.10
75317;BME280;63913;51.492;10.368;2023-02-28T04:07:14;99697.00;;;-1.01;69.45
75317;BME280;63913;51.492;10.368;2023-02-28T04:09:39;99698.91;;;-0.98;69.69
75317;BME280;63913;51.492;10.368;2023-02-28T04:12:05;99701.66;;;-1.05;70.38
75317;BME280;63913;51.492;10.368;2023-02-28T04:14:30;99700.78;;;-1.06;70.30
75317;BME280;63913;51.492;10.368;2023-02-28T04:16:55;99705.19;;;-1.03;70.33
75317;BME280;63913;51.492;10.368;2023-02-28T04:19:21;99701.53;;;-1.07;70.23
75317;BME280;63913;51.492;10.368;2023-02-28T04:21:51;99702.41;;;-1.06;70.63
75317;BME280;63913;51.492;10.368;2023-02-28T04:24:19;99700.50;;;-1.09;71.36
75317;BME280;63913;51.492;10.368;2023-02-28T04:26:46;99703.16;;;-1.07;70.85
75317;BME280;63913;51.492;10.368;2023-02-28T04:29:14;99706.56;;;-1.07;70.80
75317;BME280;63913;51.492;10.368;2023-02-28T04:31:42;99706.56;;;-1.07;70.37
75317;BME280;63913;51.492;10.368;2023-02-28T04:34:07;99700.78;;;-1.06;70.11
75317;BME280;63913;51.492;10.368;2023-02-28T04:36:33;99703.16;;;-1.07;71.09
75317;BME280;63913;51.492;10.368;2023-02-28T04:38:58;99713.03;;;-1.00;71.19
75317;BME280;63913;51.492;10.368;2023-02-28T04:41:24;99712.59;;;-1.05;70.97
75317;BME280;63913;51.492;10.368;2023-02-28T04:43:51;99712.13;;;-1.01;71.45
75317;BME280;63913;51.492;10.368;2023-02-28T04:46:18;99700.13;;;-1.03;70.94
75317;BME280;63913;51.492;10.368;2023-02-28T04:48:43;99698.50;;;-1.03;70.44
75317;BME280;63913;51.492;10.368;2023-02-28T04:51:11;99707.97;;;-1.00;70.90
75317;BME280;63913;51.492;10.368;2023-02-28T04:53:38;99703.81;;;-1.00;70.42
75317;BME280;63913;51.492;10.368;2023-02-28T04:56:04;99711.38;;;-1.00;70.79
75317;BME280;63913;51.492;10.368;2023-02-28T04:58:31;99703.22;;;-0.97;70.54
75317;BME280;63913;51.492;10.368;2023-02-28T05:01:02;99701.44;;;-0.98;70.83
75317;BME280;63913;51.492;10.368;2023-02-28T05:03:28;99710.63;;;-0.99;70.90
75317;BME280;63913;51.492;10.368;2023-02-28T05:05:53;99712.59;;;-1.05;70.61
75317;BME280;63913;51.492;10.368;2023-02-28T05:08:18;99706.81;;;-1.04;71.06
75317;BME280;63913;51.492;10.368;2023-02-28T05:10:44;99704.03;;;-1.07;70.96
75317;BME280;63913;51.492;10.368;2023-02-28T05:13:11;99708.06;;;-1.09;71.19
75317;BME280;63913;51.492;10.368;2023-02-28T05:15:37;99714.28;;;-1.05;71.08
75317;BME280;63913;51.492;10.368;2023-02-28T05:18:03;99720.53;;;-1.10;71.69
75317;BME280;63913;51.492;10.368;2023-02-28T05:20:28;99717.13;;;-1.11;72.08
75317;BME280;63913;51.492;10.368;2023-02-28T05:22:53;99719.78;;;-1.09;71.78
75317;BME280;63913;51.492;10.368;2023-02-28T05:25:21;99721.16;;;-1.13;72.18
75317;BME280;63913;51.492;10.368;2023-02-28T05:27:49;99716.38;;;-1.10;72.24
75317;BME280;63913;51.492;10.368;2023-02-28T05:30:15;99718.03;;;-1.10;72.02
75317;BME280;63913;51.492;10.368;2023-02-28T05:32:41;99729.50;;;-1.14;72.39
75317;BME280;63913;51.492;10.368;2023-02-28T05:35:09;99719.94;;;-1.08;71.79
75317;BME280;63913;51.492;10.368;2023-02-28T05:37:35;99719.88;;;-1.18;72.67
75317;BME280;63913;51.492;10.368;2023-02-28T05:40:02;99717.97;;;-1.21;72.28
75317;BME280;63913;51.492;10.368;2023-02-28T05:42:31;99720.25;;;-1.24;72.44
75317;BME280;63913;51.492;10.368;2023-02-28T05:44:56;99728.28;;;-1.28;72.96
75317;BME280;63913;51.492;10.368;2023-02-28T05:47:22;99743.56;;;-1.26;72.96
75317;BME280;63913;51.492;10.368;2023-02-28T05:49:47;99734.75;;;-1.21;72.38
75317;BME280;63913;51.492;10.368;2023-02-28T05:52:12;99729.31;;;-1.26;72.91
75317;BME280;63913;51.492;10.368;2023-02-28T05:54:38;99734.34;;;-1.26;73.08
75317;BME280;63913;51.492;10.368;2023-02-28T05:57:03;99732.03;;;-1.33;73.44
75317;BME280;63913;51.492;10.368;2023-02-28T05:59:28;99739.75;;;-1.31;73.07
75317;BME280;63913;51.492;10.368;2023-02-28T06:01:53;99743.28;;;-1.29;72.90
75317;BME280;63913;51.492;10.368;2023-02-28T06:04:20;99737.38;;;-1.30;73.04
75317;BME280;63913;51.492;10.368;2023-02-28T06:06:49;99740.13;;;-1.27;72.78
75317;BME280;63913;51.492;10.368;2023-02-28T06:09:15;99739.91;;;-1.30;72.85
75317;BME280;63913;51.492;10.368;2023-02-28T06:11:41;99739.19;;;-1.37;73.37
75317;BME280;63913;51.492;10.368;2023-02-28T06:14:07;99753.72;;;-1.35;72.99
75317;BME280;63913;51.492;10.368;2023-02-28T06:16:37;99747.78;;;-1.35;72.82
75317;BME280;63913;51.492;10.368;2023-02-28T06:19:03;99745.25;;;-1.35;73.04
75317;BME280;63913;51.492;10.368;2023-02-28T06:21:29;99748.22;;;-1.31;72.84
75317;BME280;63913;51.492;10.368;2023-02-28T06:23:56;99749.19;;;-1.29;72.90
75317;BME280;63913;51.492;10.368;2023-02-28T06:26:22;99752.50;;;-1.30;73.05
75317;BME280;63913;51.492;10.368;2023-02-28T06:28:47;99755.13;;;-1.28;73.02
75317;BME280;63913;51.492;10.368;2023-02-28T06:31:15;99753.47;;;-1.38;73.15
75317;BME280;63913;51.492;10.368;2023-02-28T06:33:41;99756.53;;;-1.32;73.02
75317;BME280;63913;51.492;10.368;2023-02-28T06:36:08;99751.19;;;-1.35;73.10
75317;BME280;63913;51.492;10.368;2023-02-28T06:38:34;99754.47;;;-1.36;73.43
75317;BME280;63913;51.492;10.368;2023-02-28T06:41:01;99767.97;;;-1.35;73.47
75317;BME280;63913;51.492;10.368;2023-02-28T06:43:32;99771.66;;;-1.32;73.29
75317;BME280;63913;51.492;10.368;2023-02-28T06:45:59;99758.00;;;-1.34;73.31
75317;BME280;63913;51.492;10.368;2023-02-28T06:48:26;99759.03;;;-1.32;73.23
75317;BME280;63913;51.492;10.368;2023-02-28T06:51:01;99764.00;;;-1.42;73.43
75317;BME280;63913;51.492;10.368;2023-02-28T06:53:26;99774.25;;;-1.40;73.39
75317;BME280;63913;51.492;10.368;2023-02-28T06:55:52;99776.28;;;-1.36;72.93
75317;BME280;63913;51.492;10.368;2023-02-28T06:58:17;99776.03;;;-1.39;72.74
75317;BME280;63913;51.492;10.368;2023-02-28T07:00:45;99771.97;;;-1.37;72.91
75317;BME280;63913;51.492;10.368;2023-02-28T07:03:12;99775.94;;;-1.31;72.81
75317;BME280;63913;51.492;10.368;2023-02-28T07:05:38;99776.69;;;-1.32;73.01
75317;BME280;63913;51.492;10.368;2023-02-28T07:08:05;99779.38;;;-1.30;72.90
75317;BME280;63913;51.492;10.368;2023-02-28T07:10:34;99779.47;;;-1.29;72.44
75317;BME280;63913;51.492;10.368;2023-02-28T07:13:00;99787.47;;;-1.24;72.82
75317;BME280;63913;51.492;10.368;2023-02-28T07:15:25;99783.03;;;-1.27;73.48
75317;BME280;63913;51.492;10.368;2023-02-28T07:17:51;99786.88;;;-1.22;72.61
75317;BME280;63913;51.492;10.368;2023-02-28T07:20:16;99786.22;;;-1.19;72.20
75317;BME280;63913;51.492;10.368;2023-02-28T07:22:42;99784.94;;;-1.24;72.54
75317;BME280;63913;51.492;10.368;2023-02-28T07:25:08;99786.56;;;-1.25;72.27
75317;BME280;63913;51.492;10.368;2023-02-28T07:27:33;99780.34;;;-1.28;70.99
75317;BME280;63913;51.492;10.368;2023-02-28T07:29:59;99792.66;;;-1.23;70.94
75317;BME280;63913;51.492;10.368;2023-02-28T07:32:27;99794.97;;;-1.16;70.08
75317;BME280;63913;51.492;10.368;2023-02-28T07:34:52;99794.88;;;-1.07;68.74
75317;BME280;63913;51.492;10.368;2023-02-28T07:37:18;99780.88;;;-1.03;68.03
75317;BME280;63913;51.492;10.368;2023-02-28T07:39:43;99780.06;;;-1.12;67.81
75317;BME280;63913;51.492;10.368;2023-02-28T07:42:09;99767.59;;;-1.11;67.88
75317;BME280;63913;51.492;10.368;2023-02-28T07:44:41;99770.19;;;-1.01;67.53
75317;BME280;63913;51.492;10.368;2023-02-28T07:47:10;99780.66;;;-0.96;65.36
75317;BME280;63913;51.492;10.368;2023-02-28T07:49:39;99780.34;;;-0.91;65.83
75317;BME280;63913;51.492;10.368;2023-02-28T07:52:06;99776.09;;;-0.82;65.01
75317;BME280;63913;51.492;10.368;2023-02-28T07:54:32;99784.94;;;-0.77;64.38
75317;BME280;63913;51.492;10.368;2023-02-28T07:56:57;99785.22;;;-0.73;64.19
75317;BME280;63913;51.492;10.368;2023-02-28T07:59:23;99781.66;;;-0.75;62.86
75317;BME280;63913;51.492;10.368;2023-02-28T08:01:48;99791.53;;;-0.68;63.18
75317;BME280;63913;51.492;10.368;2023-02-28T08:04:16;99781.72;;;-0.65;63.24
75317;BME280;63913;51.492;10.368;2023-02-28T08:06:42;99781.81;;;-0.64;62.74
75317;BME280;63913;51.492;10.368;2023-02-28T08:09:07;99787.41;;;-0.58;63.35
75317;BME280;63913;51.492;10.368;2023-02-28T08:11:33;99792.09;;;-0.52;62.66
75317;BME280;63913;51.492;10.368;2023-02-28T08:13:58;99793.25;;;-0.49;62.68
75317;BME280;63913;51.492;10.368;2023-02-28T08:16:23;99786.19;;;-0.43;61.96
75317;BME280;63913;51.492;10.368;2023-02-28T08:18:51;99784.94;;;-0.38;61.73
75317;BME280;63913;51.492;10.368;2023-02-28T08:21:17;99791.91;;;-0.35;61.17
75317;BME280;63913;51.492;10.368;2023-02-28T08:23:43;99780.78;;;-0.37;59.83
75317;BME280;63913;51.492;10.368;2023-02-28T08:26:08;99780.41;;;-0.31;59.81
75317;BME280;63913;51.492;10.368;2023-02-28T08:28:34;99779.91;;;-0.27;59.43
75317;BME280;63913;51.492;10.368;2023-02-28T08:30:59;99788.38;;;-0.27;58.87
75317;BME280;63913;51.492;10.368;2023-02-28T08:33:25;99778.94;;;-0.19;58.77
75317;BME280;63913;51.492;10.368;2023-02-28T08:35:54;99776.25;;;-0.21;57.31
75317;BME280;63913;51.492;10.368;2023-02-28T08:38:20;99780.19;;;-0.14;56.32
75317;BME280;63913;51.492;10.368;2023-02-28T08:40:45;99784.63;;;-0.12;55.58
75317;BME280;63913;51.492;10.368;2023-02-28T08:43:10;99785.38;;;-0.13;56.20
75317;BME280;63913;51.492;10.368;2023-02-28T08:45:36;99780.94;;;-0.15;56.24
75317;BME280;63913;51.492;10.368;2023-02-28T08:48:01;99790.44;;;-0.13;54.63
75317;BME280;63913;51.492;10.368;2023-02-28T08:50:27;99790.19;;;-0.06;54.96
75317;BME280;63913;51.492;10.368;2023-02-28T08:52:52;99786.00;;;-0.05;53.21
75317;BME280;63913;51.492;10.368;2023-02-28T08:55:17;99782.75;;;-0.04;53.89
75317;BME280;63913;51.492;10.368;2023-02-28T08:57:43;99788.16;;;0.00;53.22
75317;BME280;63913;51.492;10.368;2023-02-28T09:00:09;99783.38;;;0.04;53.48
75317;BME280;63913;51.492;10.368;2023-02-28T09:02:35;99767.19;;;0.02;52.00
75317;BME280;63913;51.492;10.368;2023-02-28T09:05:00;99777.84;;;0.08;52.32
75317;BME280;63913;51.492;10.368;2023-02-28T09:07:26;99778.81;;;0.10;52.85
75317;BME280;63913;51.492;10.368;2023-02-28T09:09:51;99776.28;;;0.10;52.57
75317;BME280;63913;51.492;10.368;2023-02-28T09:12:33;99772.78;;;0.08;52.21
75317;BME280;63913;51.492;10.368;2023-02-28T09:14:58;99779.47;;;0.17;51.89
75317;BME280;63913;51.492;10.368;2023-02-28T09:17:24;99776.56;;;0.23;51.46
75317;BME280;63913;51.492;10.368;2023-02-28T09:19:49;99784.38;;;0.26;51.09
75317;BME280;63913;51.492;10.368;2023-02-28T09:22:14;99783.16;;;0.31;51.82
75317;BME280;63913;51.492;10.368;2023-02-28T09:24:41;99784.03;;;0.31;51.76
75317;BME280;63913;51.492;10.368;2023-02-28T09:27:06;99780.22;;;0.36;51.36
75317;BME280;63913;51.492;10.368;2023-02-28T09:29:33;99789.59;;;0.37;51.35
75317;BME280;63913;51.492;10.368;2023-02-28T09:31:59;99789.34;;;0.45;52.70
75317;BME280;63913;51.492;10.368;2023-02-28T09:34:25;99789.81;;;0.51;52.39
75317;BME280;63913;51.492;10.368;2023-02-28T09:36:51;99795.28;;;0.55;51.78
75317;BME280;63913;51.492;10.368;2023-02-28T09:39:21;99789.81;;;0.61;50.94
75317;BME280;63913;51.492;10.368;2023-02-28T09:41:49;99785.78;;;0.73;50.69
75317;BME280;63913;51.492;10.368;2023-02-28T09:44:36;99785.88;;;0.85;49.92
75317;BME280;63913;51.492;10.368;2023-02-28T09:47:29;99794.56;;;0.98;49.52
75317;BME280;63913;51.492;10.368;2023-02-28T09:50:02;99791.00;;;1.06;49.42
75317;BME280;63913;51.492;10.368;2023-02-28T09:52:32;99787.06;;;1.10;49.28
75317;BME280;63913;51.492;10.368;2023-02-28T09:57:50;99776.97;;;1.32;49.30
75317;BME280;63913;51.492;10.368;2023-02-28T10:00:24;99794.03;;;1.44;48.88
75317;BME280;63913;51.492;10.368;2023-02-28T10:02:54;99787.59;;;1.70;48.05
75317;BME280;63913;51.492;10.368;2023-02-28T10:05:39;99791.91;;;2.04;48.17
75317;BME280;63913;51.492;10.368;2023-02-28T10:08:23;99786.50;;;2.33;46.45
75317;BME280;63913;51.492;10.368;2023-02-28T10:11:07;99795.06;;;2.68;46.37
75317;BME280;63913;51.492;10.368;2023-02-28T10:13:53;99792.25;;;3.22;46.12
75317;BME280;63913;51.492;10.368;2023-02-28T10:16:29;99799.41;;;3.39;44.19
75317;BME280;63913;51.492;10.368;2023-02-28T10:19:02;99790.16;;;3.76;43.63
75317;BME280;63913;51.492;10.368;2023-02-28T10:21:34;99786.72;;;4.12;42.85
75317;BME280;63913;51.492;10.368;2023-02-28T10:24:20;99786.28;;;4.31;42.66
75317;BME280;63913;51.492;10.368;2023-02-28T10:26:52;99785.06;;;4.51;42.44
75317;BME280;63913;51.492;10.368;2023-02-28T10:29:21;99773.28;;;4.78;41.94
75317;BME280;63913;51.492;10.368;2023-02-28T10:31:46;99775.63;;;4.88;41.55
75317;BME280;63913;51.492;10.368;2023-02-28T10:34:12;99771.53;;;4.90;41.44
75317;BME280;63913;51.492;10.368;2023-02-28T10:36:41;99759.34;;;5.12;41.35
75317;BME280;63913;51.492;10.368;2023-02-28T10:39:37;99766.63;;;4.93;40.68
75317;BME280;63913;51.492;10.368;2023-02-28T10:42:04;99757.31;;;5.07;40.49
75317;BME280;63913;51.492;10.368;2023-02-28T10:44:29;99753.66;;;5.43;40.97
75317;BME280;63913;51.492;10.368;2023-02-28T10:46:55;99749.25;;;5.68;41.64
75317;BME280;63913;51.492;10.368;2023-02-28T10:49:26;99758.94;;;5.87;39.46
75317;BME280;63913;51.492;10.368;2023-02-28T10:51:56;99753.78;;;6.13;40.75
75317;BME280;63913;51.492;10.368;2023-02-28T10:54:32;99758.44;;;6.20;38.89
75317;BME280;63913;51.492;10.368;2023-02-28T10:57:22;99753.75;;;5.98;38.95
75317;BME280;63913;51.492;10.368;2023-02-28T11:00:13;99754.88;;;6.31;39.53
75317;BME280;63913;51.492;10.368;2023-02-28T11:02:40;99756.53;;;6.16;38.63
75317;BME280;63913;51.492;10.368;2023-02-28T11:05:27;99745.28;;;5.58;38.01
75317;BME280;63913;51.492;10.368;2023-02-28T11:10:36;99749.34;;;6.10;38.86
75317;BME280;63913;51.492;10.368;2023-02-28T11:13:02;99737.44;;;6.39;38.82
75317;BME280;63913;51.492;10.368;2023-02-28T11:15:33;99749.41;;;5.97;39.70
75317;BME280;63913;51.492;10.368;2023-02-28T11:20:36;99746.78;;;5.42;38.76
75317;BME280;63913;51.492;10.368;2023-02-28T11:23:04;99738.44;;;5.44;40.87
75317;BME280;63913;51.492;10.368;2023-02-28T11:25:32;99740.94;;;5.70;40.25
75317;BME280;63913;51.492;10.368;2023-02-28T11:28:04;99738.91;;;5.93;39.88
75317;BME280;63913;51.492;10.368;2023-02-28T11:30:37;99736.13;;;6.03;39.96
75317;BME280;63913;51.492;10.368;2023-02-28T11:33:27;99739.78;;;5.93;39.91
75317;BME280;63913;51.492;10.368;2023-02-28T11:35:58;99740.22;;;6.14;40.18
75317;BME280;63913;51.492;10.368;2023-02-28T11:38:25;99742.16;;;6.33;40.62
75317;BME280;63913;51.492;10.368;2023-02-28T11:46:12;99738.84;;;5.37;40.59
75317;BME280;63913;51.492;10.368;2023-02-28T11:48:58;99729.78;;;5.55;40.76
75317;BME280;63913;51.492;10.368;2023-02-28T11:51:34;99720.09;;;5.50;40.89
75317;BME280;63913;51.492;10.368;2023-02-28T11:57:19;99725.56;;;5.97;40.61
75317;BME280;63913;51.492;10.368;2023-02-28T11:59:55;99726.09;;;5.91;41.52
75317;BME280;63913;51.492;10.368;2023-02-28T12:09:02;99727.16;;;5.82;41.15
75317;BME280;63913;51.492;10.368;2023-02-28T12:11:56;99717.13;;;5.98;41.65
75317;BME280;63913;51.492;10.368;2023-02-28T12:17:18;99701.91;;;6.14;40.97
75317;BME280;63913;51.492;10.368;2023-02-28T12:22:28;99708.50;;;6.10;41.95
75317;BME280;63913;51.492;10.368;2023-02-28T12:27:30;99700.06;;;5.84;40.71
75317;BME280;63913;51.492;10.368;2023-02-28T12:30:03;99710.78;;;5.91;40.73
75317;BME280;63913;51.492;10.368;2023-02-28T12:32:41;99705.34;;;5.87;40.75
75317;BME280;63913;51.492;10.368;2023-02-28T12:35:33;99698.28;;;5.96;41.15
75317;BME280;63913;51.492;10.368;2023-02-28T12:38:13;99703.19;;;5.93;41.24
75317;BME280;63913;51.492;10.368;2023-02-28T12:40:45;99695.97;;;6.00;42.34
75317;BME280;63913;51.492;10.368;2023-02-28T12:43:15;99696.25;;;6.05;41.55
75317;BME280;63913;51.492;10.368;2023-02-28T12:45:59;99695.72;;;5.96;42.17
75317;BME280;63913;51.492;10.368;2023-02-28T12:48:31;99694.47;;;5.89;42.97
75317;BME280;63913;51.492;10.368;2023-02-28T12:50:59;99691.69;;;5.99;42.19
75317;BME280;63913;51.492;10.368;2023-02-28T12:53:42;99691.13;;;5.90;42.42
75317;BME280;63913;51.492;10.368;2023-02-28T12:56:33;99685.81;;;6.15;42.57
75317;BME280;63913;51.492;10.368;2023-02-28T12:59:05;99681.72;;;6.04;41.83
75317;BME280;63913;51.492;10.368;2023-02-28T13:02:09;99688.72;;;6.06;42.32
75317;BME280;63913;51.492;10.368;2023-02-28T13:05:00;99683.59;;;6.21;42.15
75317;BME280;63913;51.492;10.368;2023-02-28T13:08:07;99681.25;;;6.24;41.19
75317;BME280;63913;51.492;10.368;2023-02-28T13:10:43;99683.16;;;6.28;41.41
75317;BME280;63913;51.492;10.368;2023-02-28T13:13:18;99679.31;;;5.92;40.28
75317;BME280;63913;51.492;10.368;2023-02-28T13:16:07;99682.75;;;5.93;41.50
75317;BME280;63913;51.492;10.368;2023-02-28T13:18:44;99676.53;;;6.02;41.43
75317;BME280;63913;51.492;10.368;2023-02-28T13:21:24;99684.75;;;6.11;40.91
75317;BME280;63913;51.492;10.368;2023-02-28T13:34:41;99669.06;;;6.35;40.95
75317;BME280;63913;51.492;10.368;2023-02-28T13:39:55;99677.03;;;6.39;39.91
75317;BME280;63913;51.492;10.368;2023-02-28T13:47:40;99665.53;;;6.62;40.21
75317;BME280;63913;51.492;10.368;2023-02-28T13:50:21;99657.25;;;6.51;39.68
75317;BME280;63913;51.492;10.368;2023-02-28T13:53:03;99660.88;;;6.26;41.38
75317;BME280;63913;51.492;10.368;2023-02-28T14:01:43;99654.09;;;6.56;41.24
75317;BME280;63913;51.492;10.368;2023-02-28T14:07:38;99641.75;;;6.63;40.82
75317;BME280;63913;51.492;10.368;2023-02-28T14:10:08;99647.16;;;6.38;40.29
75317;BME280;63913;51.492;10.368;2023-02-28T14:15:59;99639.56;;;6.55;41.00
75317;BME280;63913;51.492;10.368;2023-02-28T14:18:28;99640.88;;;6.33;41.96
75317;BME280;63913;51.492;10.368;2023-02-28T14:20:58;99634.53;;;6.56;40.77
75317;BME280;63913;51.492;10.368;2023-02-28T14:32:06;99634.88;;;6.62;40.27
75317;BME280;63913;51.492;10.368;2023-02-28T14:37:14;99632.88;;;6.87;41.05
75317;BME280;63913;51.492;10.368;2023-02-28T14:39:42;99632.66;;;6.99;39.51
75317;BME280;63913;51.492;10.368;2023-02-28T14:42:31;99633.25;;;6.79;40.04
75317;BME280;63913;51.492;10.368;2023-02-28T14:44:57;99627.69;;;6.86;39.80